Elgin, Illinois
Current Conditions -  °F | °C
As of 5:52 AM on Friday 28 Nov 2014 (Local Time) from KDPA Reporting Station
Overcast Overcast  
Wind Chill: 10°   Ceiling: 6000
Heat Index: 19°   Visibility: 10mi
Dew Point: 12°   Wind: 7mph
Humidity: 74%   Direction: 140°SE
Pressure: 30.27"   Gusts: NA
Location:  42.04°N, 88.28°W
Report Text: KDPA 281152Z 14006KT 10SM BKN060 OVC075 M07/M11 A3027 RMK AO2 SLP264 T10721111 11072 21106 58026
Loading
Personal Weather Stations






























Interactive Weather Map New forecast layout! Learn more

10-Day Weather Forecast

Advertisements
Track Severe Weather on mobile